createdAt,value
2023-06-20T00:01:58.056Z,20.69
2023-06-20T00:05:07.535Z,20.65
2023-06-20T00:08:11.709Z,20.63
2023-06-20T00:11:14.868Z,20.53
2023-06-20T00:14:18.264Z,20.54
2023-06-20T00:17:21.269Z,20.49
2023-06-20T00:20:24.811Z,20.45
2023-06-20T00:23:31.468Z,20.29
2023-06-20T00:26:35.021Z,20.32
2023-06-20T00:29:38.077Z,20.19
2023-06-20T00:32:41.241Z,20.12
2023-06-20T00:35:44.193Z,20.06
2023-06-20T00:38:50.484Z,20.07
2023-06-20T00:41:53.939Z,20.06
2023-06-20T00:44:56.839Z,20.02
2023-06-20T00:48:02.443Z,19.99
2023-06-20T00:51:05.896Z,20.05
2023-06-20T00:54:09.886Z,20.06
2023-06-20T00:57:14.873Z,19.99
2023-06-20T01:00:18.381Z,20.00
2023-06-20T01:03:23.120Z,19.93
2023-06-20T01:07:01.229Z,19.93
2023-06-20T01:10:22.383Z,19.91
2023-06-20T01:13:57.803Z,19.82
2023-06-20T01:17:04.631Z,19.75
2023-06-20T01:20:11.152Z,19.74
2023-06-20T01:23:22.028Z,19.66
2023-06-20T01:26:36.742Z,19.64
2023-06-20T01:29:50.437Z,19.61
2023-06-20T01:32:57.623Z,19.64
2023-06-20T01:36:03.399Z,19.56
2023-06-20T01:39:45.739Z,19.60
2023-06-20T01:42:56.162Z,19.65
2023-06-20T01:46:01.911Z,19.57
2023-06-20T01:49:06.776Z,19.46
2023-06-20T01:52:11.885Z,19.30
2023-06-20T01:55:16.438Z,19.28
2023-06-20T01:58:20.532Z,19.30
2023-06-20T02:01:25.830Z,19.22
2023-06-20T02:04:30.222Z,19.26
2023-06-20T02:07:35.671Z,19.21
2023-06-20T02:10:40.976Z,19.20
2023-06-20T02:13:45.586Z,19.23
2023-06-20T02:16:50.250Z,19.25
2023-06-20T02:19:53.522Z,19.17
2023-06-20T02:22:57.353Z,19.15
2023-06-20T02:26:11.342Z,18.99
2023-06-20T02:29:16.433Z,19.00
2023-06-20T02:32:21.672Z,18.79
2023-06-20T02:35:26.907Z,18.77
2023-06-20T02:38:30.387Z,18.79
2023-06-20T02:41:33.722Z,18.85
2023-06-20T02:44:37.083Z,18.85
2023-06-20T02:47:59.219Z,18.93
2023-06-20T02:51:13.617Z,18.93
2023-06-20T02:54:27.405Z,18.91
2023-06-20T02:57:32.489Z,18.85
2023-06-20T03:00:37.539Z,18.77
2023-06-20T03:03:46.645Z,18.68
2023-06-20T03:10:10.134Z,18.76
2023-06-20T03:13:16.695Z,18.78
2023-06-20T03:16:21.714Z,18.75
2023-06-20T03:19:25.264Z,18.78
2023-06-20T03:22:29.043Z,18.80
2023-06-20T03:25:32.510Z,18.82
2023-06-20T03:28:35.924Z,18.83
2023-06-20T03:31:39.553Z,18.83
2023-06-20T03:34:42.921Z,18.76
2023-06-20T03:37:46.086Z,18.72
2023-06-20T03:40:51.377Z,18.67
2023-06-20T03:43:54.415Z,18.70
2023-06-20T03:46:57.671Z,18.76
2023-06-20T03:50:01.190Z,18.81
2023-06-20T03:53:04.653Z,19.00
2023-06-20T03:56:07.861Z,19.37
2023-06-20T03:59:12.503Z,19.71
2023-06-20T04:02:16.102Z,19.77
2023-06-20T04:05:19.549Z,19.79
2023-06-20T04:08:22.534Z,19.52
2023-06-20T04:11:29.002Z,19.51
2023-06-20T04:14:32.319Z,19.47
2023-06-20T04:17:35.718Z,19.46
2023-06-20T04:20:39.768Z,19.42
2023-06-20T04:23:43.294Z,19.49
2023-06-20T04:26:46.634Z,19.55
2023-06-20T04:29:50.473Z,19.61
2023-06-20T04:32:54.694Z,19.62
2023-06-20T04:35:58.771Z,19.77
2023-06-20T04:39:08.302Z,19.88
2023-06-20T04:42:11.990Z,20.11
2023-06-20T04:45:15.845Z,20.36
2023-06-20T04:48:19.473Z,20.54
2023-06-20T04:51:23.529Z,20.73
2023-06-20T04:54:31.183Z,20.94
2023-06-20T04:57:35.157Z,21.13
2023-06-20T05:00:38.572Z,21.34
2023-06-20T05:03:45.516Z,21.54
2023-06-20T05:06:50.949Z,21.68
2023-06-20T05:09:54.052Z,21.86
2023-06-20T05:12:57.613Z,22.03
2023-06-20T05:16:00.825Z,22.28
2023-06-20T05:19:03.912Z,22.45
2023-06-20T05:22:07.101Z,22.61
2023-06-20T05:25:10.278Z,22.77
2023-06-20T05:28:13.615Z,22.98
2023-06-20T05:31:16.700Z,23.11
2023-06-20T05:34:20.175Z,23.08
2023-06-20T05:37:23.332Z,23.11
2023-06-20T05:40:26.914Z,23.16
2023-06-20T05:43:30.616Z,23.23
2023-06-20T05:46:33.779Z,23.38
2023-06-20T05:49:37.521Z,23.63
2023-06-20T05:52:40.534Z,23.79
2023-06-20T05:55:44.437Z,23.88
2023-06-20T05:58:47.601Z,24.03
2023-06-20T06:01:50.689Z,24.16
2023-06-20T06:04:53.990Z,24.29
2023-06-20T06:07:57.323Z,24.39
2023-06-20T06:11:00.397Z,24.60
2023-06-20T06:14:03.500Z,24.60
2023-06-20T06:17:06.908Z,24.81
2023-06-20T06:20:15.873Z,24.79
2023-06-20T06:23:19.205Z,24.93
2023-06-20T06:26:22.213Z,24.82
2023-06-20T06:29:26.871Z,24.84
2023-06-20T06:32:30.134Z,24.81
2023-06-20T06:35:35.142Z,24.62
2023-06-20T06:38:38.642Z,24.34
2023-06-20T06:41:41.927Z,24.20
2023-06-20T06:44:46.708Z,24.16
2023-06-20T06:47:50.507Z,24.15
2023-06-20T06:50:53.921Z,24.08
2023-06-20T06:53:57.449Z,24.13
2023-06-20T06:57:00.551Z,24.29
2023-06-20T07:00:14.419Z,24.48
2023-06-20T07:03:17.996Z,24.69
2023-06-20T07:06:22.011Z,24.72
2023-06-20T07:09:25.406Z,24.81
2023-06-20T07:12:28.764Z,24.85
2023-06-20T07:15:31.811Z,24.81
2023-06-20T07:18:35.946Z,24.95
2023-06-20T07:21:38.831Z,25.12
2023-06-20T07:24:41.882Z,25.27
2023-06-20T07:27:45.311Z,25.37
2023-06-20T07:30:48.670Z,25.49
2023-06-20T07:33:51.870Z,25.55
2023-06-20T07:36:54.943Z,25.65
2023-06-20T07:39:58.303Z,25.84
2023-06-20T07:43:01.338Z,25.86
2023-06-20T07:46:04.780Z,25.88
2023-06-20T07:49:08.259Z,26.06
2023-06-20T07:52:12.270Z,26.23
2023-06-20T07:55:25.053Z,26.35
2023-06-20T07:58:32.828Z,26.44
2023-06-20T08:01:36.231Z,26.59
2023-06-20T08:04:40.153Z,26.48
2023-06-20T08:07:43.507Z,26.64
2023-06-20T08:10:46.530Z,26.69
2023-06-20T08:13:49.542Z,26.90
2023-06-20T08:16:53.099Z,26.93
2023-06-20T08:19:57.938Z,27.13
2023-06-20T08:23:01.384Z,27.13
2023-06-20T08:26:04.585Z,27.13
2023-06-20T08:29:09.728Z,27.16
2023-06-20T08:32:13.061Z,27.23
2023-06-20T08:35:16.430Z,27.41
2023-06-20T08:38:19.460Z,27.45
2023-06-20T08:41:26.054Z,27.50
2023-06-20T08:44:29.842Z,27.59
2023-06-20T08:47:33.841Z,27.69
2023-06-20T08:50:38.534Z,27.74
2023-06-20T08:53:44.183Z,27.82
2023-06-20T08:56:50.107Z,27.79
2023-06-20T08:59:55.062Z,27.80
2023-06-20T09:02:58.449Z,27.85
2023-06-20T09:06:01.887Z,28.06
2023-06-20T09:09:15.835Z,28.07
2023-06-20T09:12:19.253Z,28.15
2023-06-20T09:15:24.568Z,28.13
2023-06-20T09:18:29.035Z,27.93
2023-06-20T09:21:37.793Z,28.01
2023-06-20T09:24:46.722Z,28.13
2023-06-20T09:27:51.788Z,28.14
2023-06-20T09:30:54.932Z,28.13
2023-06-20T09:33:58.426Z,28.31
2023-06-20T09:37:01.426Z,28.42
2023-06-20T09:40:12.504Z,28.48
2023-06-20T09:43:15.467Z,28.57
2023-06-20T09:46:19.050Z,28.60
2023-06-20T09:49:22.288Z,28.82
2023-06-20T09:52:33.779Z,28.78
2023-06-20T09:55:38.493Z,28.79
2023-06-20T09:58:48.681Z,28.83
2023-06-20T10:01:53.426Z,28.88
2023-06-20T10:04:58.547Z,29.12
2023-06-20T10:08:01.872Z,29.17
2023-06-20T10:11:04.879Z,29.30
2023-06-20T10:14:10.337Z,29.33
2023-06-20T10:17:14.073Z,29.29
2023-06-20T10:20:39.322Z,29.45
2023-06-20T10:23:44.968Z,29.55
2023-06-20T10:27:00.785Z,29.68
2023-06-20T10:30:06.955Z,29.87
2023-06-20T10:33:11.775Z,30.03
2023-06-20T10:36:18.600Z,30.02
2023-06-20T10:39:23.953Z,30.18
2023-06-20T10:42:41.874Z,30.39
2023-06-20T10:46:01.330Z,30.44
2023-06-20T10:49:09.555Z,30.60
2023-06-20T10:52:12.865Z,30.58
2023-06-20T10:55:23.848Z,30.60
2023-06-20T10:58:33.277Z,30.51
2023-06-20T11:01:39.534Z,30.43
2023-06-20T11:04:43.078Z,30.50
2023-06-20T11:07:56.420Z,30.28
2023-06-20T11:11:02.481Z,29.97
2023-06-20T11:14:16.749Z,30.01
2023-06-20T11:17:19.916Z,29.70
2023-06-20T11:20:25.801Z,29.66
2023-06-20T11:23:37.168Z,29.81
2023-06-20T11:26:40.390Z,29.99
2023-06-20T11:29:43.740Z,30.07
2023-06-20T11:33:10.942Z,29.99
2023-06-20T11:36:16.991Z,30.03
2023-06-20T11:39:20.059Z,29.92
2023-06-20T11:42:23.127Z,30.10
2023-06-20T11:45:29.273Z,30.24
2023-06-20T11:48:32.718Z,30.09
2023-06-20T11:51:39.480Z,30.31
2023-06-20T11:54:53.263Z,30.54
2023-06-20T11:57:56.934Z,30.82
2023-06-20T12:01:12.527Z,30.96
2023-06-20T12:04:21.279Z,31.25
2023-06-20T12:07:28.764Z,31.31
2023-06-20T12:10:32.661Z,31.37
2023-06-20T12:13:36.312Z,31.34
2023-06-20T12:16:40.004Z,31.17
2023-06-20T12:19:54.486Z,31.28
2023-06-20T12:22:58.949Z,31.33
2023-06-20T12:26:02.196Z,31.40
2023-06-20T12:29:06.179Z,31.28
2023-06-20T12:32:10.992Z,31.21
2023-06-20T12:35:14.165Z,31.32
2023-06-20T12:38:17.246Z,31.48
2023-06-20T12:41:21.632Z,31.61
2023-06-20T12:44:24.604Z,31.48
2023-06-20T12:47:27.935Z,31.41
2023-06-20T12:50:32.680Z,31.55
2023-06-20T12:53:36.602Z,31.47
2023-06-20T12:56:42.224Z,31.51
2023-06-20T12:59:45.549Z,31.64
2023-06-20T13:02:48.497Z,31.45
2023-06-20T13:05:51.420Z,31.35
2023-06-20T13:08:54.504Z,31.33
2023-06-20T13:11:57.849Z,31.29
2023-06-20T13:15:06.474Z,31.35
2023-06-20T13:18:11.264Z,31.29
2023-06-20T13:21:15.596Z,31.33
2023-06-20T13:24:18.865Z,31.32
2023-06-20T13:27:22.042Z,31.30
2023-06-20T13:30:28.777Z,31.14
2023-06-20T13:33:32.444Z,31.02
2023-06-20T13:36:35.606Z,30.93
2023-06-20T13:39:38.706Z,30.93
2023-06-20T13:42:43.802Z,30.64
2023-06-20T13:45:47.191Z,30.48
2023-06-20T13:48:51.891Z,30.46
2023-06-20T13:51:55.927Z,30.59
2023-06-20T13:54:59.026Z,30.60
2023-06-20T13:58:02.440Z,30.50
2023-06-20T14:01:08.688Z,30.44
2023-06-20T14:04:12.432Z,30.33
2023-06-20T14:07:15.969Z,30.40
2023-06-20T14:10:19.081Z,30.28
2023-06-20T14:13:22.711Z,30.30
2023-06-20T14:16:26.572Z,30.28
2023-06-20T14:19:33.585Z,30.28
2023-06-20T14:22:37.551Z,30.36
2023-06-20T14:25:41.046Z,30.32
2023-06-20T14:28:45.457Z,30.37
2023-06-20T14:31:48.734Z,30.28
2023-06-20T14:34:51.813Z,30.21
2023-06-20T14:37:54.928Z,30.32
2023-06-20T14:40:58.469Z,30.33
2023-06-20T14:44:01.657Z,30.33
2023-06-20T14:47:05.060Z,30.27
2023-06-20T14:50:09.165Z,30.16
2023-06-20T14:53:12.433Z,30.12
2023-06-20T14:56:16.065Z,30.11
2023-06-20T14:59:19.194Z,30.12
2023-06-20T15:02:23.041Z,30.15
2023-06-20T15:05:26.206Z,30.13
2023-06-20T15:08:30.655Z,29.99
2023-06-20T15:11:33.669Z,29.85
2023-06-20T15:14:36.789Z,29.89
2023-06-20T15:17:39.805Z,29.93
2023-06-20T15:20:43.325Z,29.99
2023-06-20T15:23:46.504Z,29.92
2023-06-20T15:26:49.731Z,29.87
2023-06-20T15:29:53.203Z,29.86
2023-06-20T15:32:56.662Z,29.83
2023-06-20T15:35:59.823Z,29.87
2023-06-20T15:39:04.149Z,29.81
2023-06-20T15:42:07.733Z,29.79
2023-06-20T15:45:13.784Z,29.76
2023-06-20T15:48:17.140Z,29.70
2023-06-20T15:51:21.438Z,29.59
2023-06-20T15:54:24.739Z,29.45
2023-06-20T15:57:28.130Z,29.46
2023-06-20T16:00:31.109Z,29.51
2023-06-20T16:03:34.227Z,29.46
2023-06-20T16:06:37.695Z,29.52
2023-06-20T16:09:40.967Z,29.38
2023-06-20T16:12:44.469Z,29.38
2023-06-20T16:15:47.625Z,29.24
2023-06-20T16:18:52.410Z,29.19
2023-06-20T16:21:55.457Z,29.12
2023-06-20T16:24:58.499Z,29.01
2023-06-20T16:28:01.519Z,28.93
2023-06-20T16:31:05.375Z,28.92
2023-06-20T16:34:11.924Z,28.83
2023-06-20T16:37:15.046Z,28.73
2023-06-20T16:40:18.987Z,28.67
2023-06-20T16:43:23.898Z,28.61
2023-06-20T16:46:27.174Z,28.50
2023-06-20T16:49:31.786Z,28.44
2023-06-20T16:52:35.026Z,28.42
2023-06-20T16:55:39.522Z,28.38
2023-06-20T16:58:42.938Z,28.30
2023-06-20T17:01:47.088Z,28.24
2023-06-20T17:04:50.677Z,28.23
2023-06-20T17:07:54.510Z,28.17
2023-06-20T17:10:57.686Z,28.14
2023-06-20T17:14:01.541Z,28.11
2023-06-20T17:17:04.997Z,28.08
2023-06-20T17:20:08.703Z,28.05
2023-06-20T17:23:11.892Z,28.02
2023-06-20T17:26:15.204Z,28.02
2023-06-20T17:29:18.640Z,28.02
2023-06-20T17:32:22.174Z,27.96
2023-06-20T17:35:25.459Z,27.92
2023-06-20T17:38:28.476Z,27.84
2023-06-20T17:41:31.708Z,27.75
2023-06-20T17:44:35.057Z,27.73
2023-06-20T17:47:38.429Z,27.65
2023-06-20T17:50:41.616Z,27.56
2023-06-20T17:53:45.223Z,27.54
2023-06-20T17:56:49.550Z,27.50
2023-06-20T17:59:53.066Z,27.43
2023-06-20T18:02:56.562Z,27.38
2023-06-20T18:05:59.720Z,27.27
2023-06-20T18:09:02.832Z,27.17
2023-06-20T18:12:07.331Z,27.10
2023-06-20T18:15:11.086Z,27.03
2023-06-20T18:18:14.488Z,26.98
2023-06-20T18:21:17.640Z,26.94
2023-06-20T18:24:20.811Z,26.87
2023-06-20T18:27:24.908Z,26.79
2023-06-20T18:30:28.420Z,26.76
2023-06-20T18:33:31.815Z,26.65
2023-06-20T18:36:36.101Z,26.59
2023-06-20T18:39:39.599Z,26.46
2023-06-20T18:42:42.837Z,26.37
2023-06-20T18:45:46.861Z,26.29
2023-06-20T18:48:50.329Z,26.20
2023-06-20T18:51:54.728Z,26.12
2023-06-20T18:54:57.921Z,26.08
2023-06-20T18:58:01.002Z,25.94
2023-06-20T19:01:05.649Z,25.86
2023-06-20T19:04:08.797Z,25.84
2023-06-20T19:07:12.005Z,25.78
2023-06-20T19:10:15.394Z,25.69
2023-06-20T19:13:19.013Z,25.68
2023-06-20T19:16:22.674Z,25.58
2023-06-20T19:19:25.869Z,25.56
2023-06-20T19:22:28.904Z,25.51
2023-06-20T19:25:33.882Z,25.39
2023-06-20T19:28:38.795Z,25.30
2023-06-20T19:31:45.473Z,25.23
2023-06-20T19:34:50.146Z,25.21
2023-06-20T19:37:53.691Z,25.14
2023-06-20T19:40:58.404Z,25.07
2023-06-20T19:44:01.893Z,25.04
2023-06-20T19:47:05.248Z,24.95
2023-06-20T19:50:09.172Z,24.86
2023-06-20T19:53:12.603Z,24.75
2023-06-20T19:56:15.994Z,24.70
2023-06-20T19:59:19.213Z,24.61
2023-06-20T20:02:27.841Z,24.56
2023-06-20T20:05:31.071Z,24.48
2023-06-20T20:08:34.114Z,24.49
2023-06-20T20:11:37.111Z,24.39
2023-06-20T20:14:40.447Z,24.36
2023-06-20T20:17:43.436Z,24.37
2023-06-20T20:20:46.857Z,24.32
2023-06-20T20:23:50.015Z,24.29
2023-06-20T20:26:54.068Z,24.29
2023-06-20T20:29:57.264Z,24.12
2023-06-20T20:33:00.377Z,24.08
2023-06-20T20:36:03.548Z,24.07
2023-06-20T20:39:06.541Z,23.97
2023-06-20T20:42:10.246Z,23.92
2023-06-20T20:45:13.305Z,23.88
2023-06-20T20:48:16.344Z,23.88
2023-06-20T20:51:21.387Z,23.85
2023-06-20T20:54:24.986Z,23.86
2023-06-20T20:57:28.403Z,23.80
2023-06-20T21:00:31.473Z,23.79
2023-06-20T21:03:35.166Z,23.62
2023-06-20T21:06:38.693Z,23.50
2023-06-20T21:09:41.907Z,23.51
2023-06-20T21:12:45.410Z,23.37
2023-06-20T21:15:48.761Z,23.41
2023-06-20T21:18:51.855Z,23.41
2023-06-20T21:21:55.424Z,23.36
2023-06-20T21:24:58.654Z,23.32
2023-06-20T21:28:01.851Z,23.30
2023-06-20T21:31:05.354Z,23.27
2023-06-20T21:34:08.547Z,23.29
2023-06-20T21:37:12.013Z,23.27
2023-06-20T21:40:15.287Z,23.16
2023-06-20T21:43:18.384Z,23.12
2023-06-20T21:46:24.164Z,23.03
2023-06-20T21:49:27.899Z,23.04
2023-06-20T21:52:30.938Z,23.11
2023-06-20T21:55:34.456Z,22.92
2023-06-20T21:58:37.772Z,22.83
2023-06-20T22:01:41.101Z,22.76
2023-06-20T22:04:44.481Z,22.81
2023-06-20T22:07:47.868Z,22.77
2023-06-20T22:10:59.797Z,22.63
2023-06-20T22:14:03.643Z,22.59
2023-06-20T22:17:06.901Z,22.48
2023-06-20T22:20:13.298Z,22.49
2023-06-20T22:23:16.656Z,22.35
2023-06-20T22:26:19.938Z,22.26
2023-06-20T22:29:22.909Z,22.21
2023-06-20T22:32:25.956Z,22.27
2023-06-20T22:35:29.094Z,22.30
2023-06-20T22:38:32.436Z,22.28
2023-06-20T22:41:35.453Z,22.15
2023-06-20T22:44:38.555Z,22.12
2023-06-20T22:47:41.987Z,22.05
2023-06-20T22:50:46.045Z,21.93
2023-06-20T22:53:49.573Z,21.81
2023-06-20T22:56:53.786Z,21.75
2023-06-20T22:59:56.763Z,21.69
2023-06-20T23:02:59.899Z,21.61
2023-06-20T23:06:03.028Z,21.51
2023-06-20T23:09:06.937Z,21.48
2023-06-20T23:12:10.879Z,21.42
2023-06-20T23:15:14.210Z,21.39
2023-06-20T23:18:23.627Z,21.37
2023-06-20T23:21:27.210Z,21.35
2023-06-20T23:24:30.164Z,21.39
2023-06-20T23:27:39.034Z,21.45
2023-06-20T23:30:45.351Z,21.49
2023-06-20T23:33:51.619Z,21.48
2023-06-20T23:36:54.855Z,21.39
2023-06-20T23:39:57.838Z,21.38
2023-06-20T23:43:01.206Z,21.32
2023-06-20T23:49:07.721Z,21.12
2023-06-20T23:52:10.773Z,21.14
2023-06-20T23:55:14.067Z,21.08
2023-06-20T23:58:17.447Z,21.06
